Time;durP1;ratioP1;P1;durP2;ratioP2;P2;SDS_P1;SDS_P2;PMS_P1;PMS_P2;Temp;Humidity;BMP_temperature;BMP_pressure;BME280_temperature;BME280_humidity;BME280_pressure;Samples;Min_cycle;Max_cycle;Signal;HPM_P1;HPM_P2
2021/10/12 10:02:40;;;;;;;42.60;39.60;;;;;;;13.15;100.00;102621.79;1940986;74;32975;-72
2021/10/12 10:08:05;;;;;;;42.07;39.00;;;;;;;13.39;100.00;102612.61;1940830;74;33081;-73
2021/10/12 10:13:33;;;;;;;43.33;40.13;;;;;;;13.45;100.00;102606.81;1940988;74;33693;-73
2021/10/12 10:18:58;;;;;;;48.63;45.50;;;;;;;13.42;100.00;102614.33;1940947;74;33498;-73
2021/10/12 10:24:41;;;;;;;45.43;42.23;;;;;;;13.61;100.00;102613.39;1940785;74;32996;-75
2021/10/12 10:30:29;;;;;;;44.07;40.97;;;;;;;13.88;100.00;102614.25;1941020;74;33507;-72
2021/10/12 10:35:58;;;;;;;42.73;39.70;;;;;;;14.05;100.00;102612.17;1940785;74;33001;-71
2021/10/12 10:41:27;;;;;;;43.43;40.40;;;;;;;14.19;100.00;102602.80;1940960;74;33562;-70
2021/10/12 10:46:53;;;;;;;40.83;37.90;;;;;;;14.59;100.00;102585.48;1940869;74;33747;-70
2021/10/12 10:52:21;;;;;;;40.80;38.20;;;;;;;14.68;100.00;102584.42;1940996;74;33081;-71
2021/10/12 10:58:10;;;;;;;39.10;36.47;;;;;;;14.45;100.00;102571.17;1940787;74;32986;-70
2021/10/12 11:03:42;;;;;;;40.40;37.77;;;;;;;14.35;100.00;102568.80;1941037;74;33552;-72
2021/10/12 11:09:10;;;;;;;40.97;38.13;;;;;;;14.63;100.00;102560.64;1940917;74;33551;-71
2021/10/12 11:14:35;;;;;;;39.27;36.50;;;;;;;14.89;100.00;102556.28;1940739;74;32965;-71
2021/10/12 11:20:11;;;;;;;38.30;35.77;;;;;;;15.07;100.00;102559.16;1940991;74;33570;-71
2021/10/12 11:25:38;;;;;;;37.67;35.07;;;;;;;15.24;100.00;102555.59;1941037;74;33046;-71
2021/10/12 11:31:06;;;;;;;38.53;36.03;;;;;;;15.26;100.00;102550.57;1941048;74;33101;-71
2021/10/12 11:36:34;;;;;;;37.20;34.67;;;;;;;15.44;100.00;102545.02;1940995;74;33563;-71
2021/10/12 11:42:04;;;;;;;37.77;35.47;;;;;;;15.64;100.00;102538.63;1941054;74;33186;-69
2021/10/12 11:47:29;;;;;;;38.53;36.07;;;;;;;15.70;100.00;102535.55;1941041;74;33570;-71
2021/10/12 11:53:02;;;;;;;35.47;33.17;;;;;;;15.84;100.00;102523.23;1941050;74;33619;-71
2021/10/12 11:58:31;;;;;;;33.87;31.77;;;;;;;15.90;100.00;102517.36;1941080;74;32989;-71
2021/10/12 12:03:57;;;;;;;37.97;35.53;;;;;;;16.00;100.00;102516.53;1941100;74;32978;-70
2021/10/12 12:09:22;;;;;;;35.17;33.10;;;;;;;16.04;100.00;102502.78;2021542;70;32796;-73
2021/10/12 12:11:53;;;;;;;36.73;34.70;;;;;;;16.00;100.00;102510.08;1995302;72;26249;-70
2021/10/12 12:14:28;;;;;;;37.33;35.03;;;;;;;16.04;100.00;102502.22;1995511;72;26229;-70
2021/10/12 12:20:14;;;;;;;35.63;33.50;;;;;;;16.17;100.00;102495.20;1940903;74;33099;-70
2021/10/12 12:25:39;;;;;;;37.20;35.10;;;;;;;16.16;100.00;102493.52;1940876;74;32998;-70
2021/10/12 12:31:23;;;;;;;36.60;34.30;;;;;;;16.06;100.00;102501.36;1941093;74;33497;-69
2021/10/12 12:36:48;;;;;;;36.93;34.70;;;;;;;16.11;100.00;102497.72;1940903;74;33174;-69
2021/10/12 12:42:35;;;;;;;36.20;34.00;;;;;;;16.25;100.00;102483.40;1941030;74;31497;-69
2021/10/12 12:48:06;;;;;;;51.10;48.40;;;;;;;16.15;100.00;102484.25;1941010;74;33059;-69
2021/10/12 12:53:43;;;;;;;35.27;33.27;;;;;;;16.46;100.00;102479.98;1940863;74;32936;-70
2021/10/12 12:59:11;;;;;;;33.07;31.17;;;;;;;16.62;100.00;102482.47;1941067;74;33462;-69
2021/10/12 13:04:35;;;;;;;35.80;33.77;;;;;;;16.63;100.00;102480.52;1940906;74;33105;-71
2021/10/12 13:09:59;;;;;;;36.67;34.47;;;;;;;16.35;100.00;102475.79;1941059;74;33516;-69
2021/10/12 13:15:23;;;;;;;34.50;32.33;;;;;;;16.61;100.00;102467.31;1941144;74;33030;-70
2021/10/12 13:20:48;;;;;;;34.23;32.30;;;;;;;16.76;100.00;102456.05;1940906;74;33095;-69
2021/10/12 13:26:12;;;;;;;33.53;31.37;;;;;;;16.56;100.00;102451.90;1940857;74;32974;-69
2021/10/12 13:31:38;;;;;;;34.50;32.40;;;;;;;16.43;100.00;102460.92;1940883;74;33144;-72
2021/10/12 13:37:03;;;;;;;33.47;31.73;;;;;;;16.37;100.00;102460.94;1941159;74;33078;-69
2021/10/12 13:42:28;;;;;;;34.90;32.60;;;;;;;16.64;100.00;102456.95;1940817;74;32956;-68
2021/10/12 13:47:54;;;;;;;35.13;33.13;;;;;;;17.17;100.00;102456.08;1941059;74;31543;-69
2021/10/12 13:53:18;;;;;;;32.50;30.60;;;;;;;17.28;100.00;102445.05;1941058;74;31073;-69
2021/10/12 13:58:43;;;;;;;32.07;30.20;;;;;;;17.21;100.00;102444.55;1940982;74;33042;-69
2021/10/12 14:04:08;;;;;;;33.83;32.03;;;;;;;17.10;100.00;102446.31;1941071;74;31544;-70
2021/10/12 14:09:33;;;;;;;33.80;31.90;;;;;;;17.04;100.00;102441.28;1940914;74;31012;-70
2021/10/12 14:14:59;;;;;;;35.33;32.93;;;;;;;17.02;100.00;102440.75;1941080;74;31687;-71
2021/10/12 14:20:24;;;;;;;38.33;35.73;;;;;;;16.79;100.00;102445.08;1941017;74;31011;-70
2021/10/12 14:25:49;;;;;;;36.17;34.07;;;;;;;16.73;100.00;102430.78;1940856;74;31132;-69
2021/10/12 14:31:16;;;;;;;41.17;37.70;;;;;;;16.78;100.00;102435.53;1940977;74;33504;-70
2021/10/12 14:36:40;;;;;;;42.10;38.90;;;;;;;16.95;100.00;102434.59;1940892;74;33080;-70
2021/10/12 14:42:05;;;;;;;37.40;35.20;;;;;;;16.88;100.00;102435.48;1940859;74;32975;-68
2021/10/12 14:47:31;;;;;;;36.40;34.33;;;;;;;16.76;100.00;102435.84;1941078;74;31027;-69
2021/10/12 14:52:55;;;;;;;34.93;32.90;;;;;;;16.76;100.00;102426.58;1941180;74;31029;-69
2021/10/12 14:58:20;;;;;;;37.33;35.27;;;;;;;16.74;100.00;102433.03;1940977;74;32981;-70
2021/10/12 15:03:50;;;;;;;37.33;35.30;;;;;;;16.63;100.00;102435.06;1941108;74;31725;-70
2021/10/12 15:09:14;;;;;;;37.50;35.27;;;;;;;16.59;100.00;102437.32;1941121;74;33583;-68
2021/10/12 15:14:39;;;;;;;35.90;33.80;;;;;;;16.66;100.00;102439.24;1941060;74;33566;-69
2021/10/12 15:20:03;;;;;;;35.87;34.00;;;;;;;16.65;100.00;102447.37;1940873;74;32950;-70
2021/10/12 15:25:26;;;;;;;37.20;35.20;;;;;;;16.63;100.00;102443.48;1941081;74;32961;-70
2021/10/12 15:30:51;;;;;;;39.07;36.87;;;;;;;16.68;100.00;102442.05;1940868;74;33073;-71
2021/10/12 15:36:21;;;;;;;40.50;38.17;;;;;;;16.65;100.00;102445.97;1940864;74;31131;-71
2021/10/12 15:42:14;;;;;;;41.60;39.10;;;;;;;16.53;100.00;102449.64;1941170;74;31525;-71
2021/10/12 15:47:38;;;;;;;41.90;39.37;;;;;;;16.43;100.00;102455.31;1940916;74;31052;-70
2021/10/12 15:53:04;;;;;;;43.23;40.53;;;;;;;16.40;100.00;102469.33;1940978;74;33086;-71
2021/10/12 15:58:28;;;;;;;45.60;42.63;;;;;;;16.26;100.00;102472.44;1940847;74;31167;-72
2021/10/12 16:03:53;;;;;;;48.23;45.33;;;;;;;16.03;100.00;102480.91;1940937;74;33130;-71
2021/10/12 16:09:18;;;;;;;47.43;44.63;;;;;;;16.04;100.00;102488.21;1940999;74;33088;-71
2021/10/12 16:26:18;;;;;;;52.90;49.80;;;;;;;15.92;100.00;102519.31;1940881;74;31062;-70
2021/10/12 16:31:49;;;;;;;52.83;49.47;;;;;;;16.01;100.00;102514.53;1941077;74;33486;-70
2021/10/12 16:37:14;;;;;;;51.50;48.40;;;;;;;15.92;100.00;102523.52;1941047;74;31055;-71
2021/10/12 16:42:39;;;;;;;53.43;50.23;;;;;;;15.91;100.00;102522.41;1940896;74;31037;-71
2021/10/12 16:48:05;;;;;;;51.50;48.20;;;;;;;15.85;100.00;102533.33;1941070;74;33627;-70
2021/10/12 16:53:29;;;;;;;53.33;50.13;;;;;;;15.85;100.00;102534.73;1940861;74;31144;-71
2021/10/12 16:59:12;;;;;;;49.17;46.20;;;;;;;15.84;100.00;102544.25;1940850;74;33020;-71
2021/10/12 17:04:42;;;;;;;50.77;47.53;;;;;;;15.82;100.00;102550.70;1894031;71;33286;-69
2021/10/12 17:10:03;;;;;;;51.63;48.23;;;;;;;15.82;100.00;102541.75;1940869;74;31043;-69
2021/10/12 17:15:29;;;;;;;52.07;48.83;;;;;;;15.70;100.00;102544.54;1940920;74;31110;-70
2021/10/12 17:20:53;;;;;;;52.87;49.47;;;;;;;15.53;100.00;102547.59;1940786;74;31152;-69
2021/10/12 17:26:17;;;;;;;53.77;50.27;;;;;;;15.38;100.00;102552.56;1940740;74;33067;-71
2021/10/12 17:31:42;;;;;;;53.93;50.43;;;;;;;15.44;100.00;102561.83;1940812;74;32986;-70
2021/10/12 17:37:10;;;;;;;53.47;50.00;;;;;;;15.43;100.00;102562.38;1940864;74;32963;-70
2021/10/12 17:42:33;;;;;;;53.87;50.47;;;;;;;15.26;100.00;102567.92;1940741;74;33582;-70
2021/10/12 17:47:57;;;;;;;52.13;48.57;;;;;;;15.19;100.00;102559.77;1940716;74;32970;-68
2021/10/12 17:53:26;;;;;;;51.50;47.90;;;;;;;15.21;100.00;102560.35;1940804;74;33560;-69
2021/10/12 17:58:50;;;;;;;53.20;49.57;;;;;;;15.06;100.00;102560.86;1940724;74;31205;-69
2021/10/12 18:04:17;;;;;;;56.00;52.30;;;;;;;14.82;100.00;102563.25;1940731;74;33109;-70
2021/10/12 18:09:45;;;;;;;57.77;53.70;;;;;;;14.90;100.00;102571.97;1940759;74;33051;-70
2021/10/12 18:15:09;;;;;;;55.60;51.90;;;;;;;14.83;100.00;102582.58;1940786;74;33057;-69
2021/10/12 18:20:34;;;;;;;55.77;51.87;;;;;;;14.78;100.00;102588.14;1940872;74;33469;-69
2021/10/12 18:25:59;;;;;;;55.03;51.27;;;;;;;14.98;100.00;102596.63;1940755;74;33057;-70
2021/10/12 18:31:23;;;;;;;55.90;52.10;;;;;;;15.09;100.00;102598.94;1940947;74;33617;-69
2021/10/12 18:36:48;;;;;;;54.93;50.93;;;;;;;15.23;100.00;102606.28;1940980;74;33128;-70
2021/10/12 18:42:13;;;;;;;56.53;52.63;;;;;;;15.23;100.00;102603.48;1940947;74;33068;-71
2021/10/12 18:47:38;;;;;;;55.47;51.47;;;;;;;15.24;100.00;102605.14;1940790;74;32979;-70
2021/10/12 18:53:06;;;;;;;59.70;55.43;;;;;;;15.19;100.00;102597.56;1940927;74;33437;-70
2021/10/12 18:58:31;;;;;;;58.37;54.17;;;;;;;15.28;100.00;102614.13;1940785;74;33092;-72
2021/10/12 19:03:55;;;;;;;58.80;54.50;;;;;;;15.27;100.00;102618.06;1940766;74;33069;-70
2021/10/12 19:09:19;;;;;;;59.93;55.27;;;;;;;15.26;100.00;102626.17;1940942;74;33483;-69
2021/10/12 19:14:43;;;;;;;57.67;53.40;;;;;;;15.28;100.00;102630.92;1940802;74;33083;-73
2021/10/12 19:20:10;;;;;;;57.70;53.37;;;;;;;15.30;100.00;102637.66;1940746;74;32982;-72
2021/10/12 19:25:34;;;;;;;57.47;53.10;;;;;;;15.30;100.00;102645.50;1940950;74;33565;-71
2021/10/12 19:30:59;;;;;;;59.90;55.33;;;;;;;15.29;100.00;102636.81;1940743;74;33061;-71
2021/10/12 19:36:23;;;;;;;60.37;55.63;;;;;;;15.29;100.00;102652.22;1941031;74;33516;-69
2021/10/12 19:41:47;;;;;;;57.73;53.33;;;;;;;15.27;100.00;102651.66;1940812;74;33049;-70
2021/10/12 19:47:13;;;;;;;57.97;53.53;;;;;;;15.01;100.00;102662.44;1940913;74;32963;-70
2021/10/12 19:52:37;;;;;;;55.50;51.20;;;;;;;14.93;100.00;102676.94;1940883;74;33123;-69
2021/10/12 19:58:03;;;;;;;57.67;53.20;;;;;;;14.89;100.00;102674.40;1941053;74;31077;-68
2021/10/12 20:03:47;;;;;;;55.53;51.43;;;;;;;14.92;100.00;102683.64;1940864;74;32988;-70
2021/10/12 20:09:12;;;;;;;56.13;51.87;;;;;;;14.88;100.00;102693.69;1940817;74;32973;-69
2021/10/12 20:14:37;;;;;;;52.90;49.10;;;;;;;14.73;100.00;102692.16;1941015;74;33601;-69
2021/10/12 20:20:10;;;;;;;51.27;47.53;;;;;;;14.76;100.00;102702.84;1940962;74;33632;-71
2021/10/12 20:25:35;;;;;;;51.67;48.27;;;;;;;14.72;100.00;102704.49;1940820;74;32986;-69
2021/10/12 20:31:03;;;;;;;49.60;46.37;;;;;;;14.68;100.00;102701.36;1940794;74;32999;-71
2021/10/12 20:36:30;;;;;;;48.87;45.47;;;;;;;14.72;100.00;102703.09;1941019;74;33493;-71
2021/10/12 20:41:54;;;;;;;51.27;47.77;;;;;;;14.69;100.00;102694.66;1940964;74;33528;-71
2021/10/12 20:47:19;;;;;;;50.63;47.30;;;;;;;14.57;100.00;102703.25;1940781;74;32985;-69
2021/10/12 20:52:44;;;;;;;49.40;45.90;;;;;;;14.64;100.00;102713.34;1940777;74;33091;-70
2021/10/12 20:58:08;;;;;;;52.53;49.13;;;;;;;14.54;100.00;102723.38;1940900;74;33482;-70
2021/10/12 21:03:34;;;;;;;51.80;48.40;;;;;;;14.46;100.00;102718.82;1940778;74;33109;-67
2021/10/12 21:08:59;;;;;;;50.63;47.30;;;;;;;14.35;100.00;102716.98;1940975;74;32999;-70
2021/10/12 21:14:23;;;;;;;52.27;48.80;;;;;;;14.39;100.00;102714.83;1940791;74;32978;-71
2021/10/12 21:19:48;;;;;;;51.93;48.47;;;;;;;14.42;100.00;102721.27;1941019;74;33476;-69
2021/10/12 21:25:13;;;;;;;53.37;49.77;;;;;;;14.34;100.00;102727.87;1940948;74;33056;-69
2021/10/12 21:30:40;;;;;;;51.03;47.53;;;;;;;14.20;100.00;102735.02;1940791;74;32986;-69
2021/10/12 21:36:05;;;;;;;51.23;47.73;;;;;;;14.16;100.00;102730.52;1940750;74;33074;-69
2021/10/12 21:41:30;;;;;;;51.93;48.43;;;;;;;14.13;100.00;102738.00;1940905;74;32975;-69
2021/10/12 21:46:54;;;;;;;50.40;46.90;;;;;;;14.26;100.00;102746.52;1940818;74;33190;-70
2021/10/12 21:52:19;;;;;;;49.80;46.47;;;;;;;14.24;100.00;102743.16;1940767;74;33054;-69
2021/10/12 21:57:43;;;;;;;49.60;46.30;;;;;;;14.20;100.00;102758.23;1940931;74;33192;-68
2021/10/12 22:03:09;;;;;;;50.10;46.77;;;;;;;14.06;100.00;102754.15;1940813;74;33032;-69
2021/10/12 22:08:33;;;;;;;48.33;44.93;;;;;;;14.06;100.00;102753.59;1940773;74;33076;-69
2021/10/12 22:13:57;;;;;;;48.43;45.10;;;;;;;14.04;100.00;102757.74;1940961;74;33443;-69
2021/10/12 22:19:22;;;;;;;49.67;46.27;;;;;;;14.03;100.00;102751.89;1940914;74;33549;-69
2021/10/12 22:24:46;;;;;;;51.23;47.73;;;;;;;13.92;100.00;102757.05;1940768;74;33150;-69
2021/10/12 22:30:11;;;;;;;47.20;44.10;;;;;;;13.86;100.00;102756.13;1940989;74;33552;-70
2021/10/12 22:35:36;;;;;;;47.80;44.80;;;;;;;13.73;100.00;102751.52;1940797;74;33004;-69
2021/10/12 22:41:00;;;;;;;45.93;42.93;;;;;;;13.79;100.00;102744.33;1940997;74;33545;-69
2021/10/12 22:46:26;;;;;;;45.90;43.00;;;;;;;13.83;100.00;102741.84;1940773;74;33191;-69
2021/10/12 22:51:50;;;;;;;47.03;44.03;;;;;;;13.79;100.00;102742.92;1940833;74;33159;-69
2021/10/12 22:57:14;;;;;;;47.23;44.13;;;;;;;13.77;100.00;102744.30;1940781;74;33088;-69
2021/10/12 23:02:38;;;;;;;46.87;43.87;;;;;;;13.80;100.00;102751.61;1940796;74;33050;-69
2021/10/12 23:08:04;;;;;;;46.43;43.30;;;;;;;13.72;100.00;102751.22;1941011;74;33582;-69
2021/10/12 23:13:29;;;;;;;48.70;45.53;;;;;;;13.65;100.00;102749.45;1940856;74;33087;-69
2021/10/12 23:18:53;;;;;;;48.23;45.07;;;;;;;13.55;100.00;102758.27;1940706;74;33002;-69
2021/10/12 23:24:18;;;;;;;46.27;43.00;;;;;;;13.57;100.00;102767.21;1941059;74;33564;-69
2021/10/12 23:29:42;;;;;;;44.97;41.97;;;;;;;13.48;100.00;102759.84;1940991;74;32999;-69
2021/10/12 23:35:08;;;;;;;46.60;43.63;;;;;;;13.41;100.00;102765.32;1940801;74;33054;-69
2021/10/12 23:40:32;;;;;;;45.50;42.47;;;;;;;13.45;100.00;102778.51;1940817;74;33003;-69
2021/10/12 23:46:08;;;;;;;45.20;42.23;;;;;;;13.28;100.00;102794.44;1942603;73;32998;-69
2021/10/12 23:48:38;;;;;;;44.67;41.87;;;;;;;13.13;100.00;102797.02;1852100;77;26233;-69
2021/10/12 23:51:08;;;;;;;44.70;42.00;;;;;;;13.17;100.00;102800.44;1840042;77;26244;-69
2021/10/12 23:53:38;;;;;;;44.53;41.67;;;;;;;13.14;100.00;102800.08;1861713;76;26686;-69
2021/10/12 23:56:08;;;;;;;46.47;43.47;;;;;;;13.08;100.00;102808.06;1902062;75;26375;-69
2021/10/12 23:58:38;;;;;;;45.70;42.70;;;;;;;12.99;100.00;102804.84;1840235;77;26310;-69
